createdAt,value
2018-04-18T00:01:55.736Z,17.03
2018-04-18T00:04:23.455Z,16.30
2018-04-18T00:07:17.092Z,19.80
2018-04-18T00:09:45.126Z,17.83
2018-04-18T00:12:19.463Z,16.43
2018-04-18T00:14:47.880Z,16.47
2018-04-18T00:17:17.932Z,14.13
2018-04-18T00:19:45.749Z,12.10
2018-04-18T00:22:16.200Z,12.77
2018-04-18T00:24:43.892Z,13.93
2018-04-18T00:27:18.004Z,12.17
2018-04-18T00:29:45.695Z,14.80
2018-04-18T00:32:19.616Z,10.20
2018-04-18T00:34:48.088Z,11.00
2018-04-18T00:37:17.273Z,12.60
2018-04-18T00:39:45.744Z,9.83
2018-04-18T00:42:23.743Z,14.57
2018-04-18T00:44:51.434Z,16.13
2018-04-18T00:47:21.504Z,16.40
2018-04-18T00:49:49.215Z,13.30
2018-04-18T00:52:30.178Z,17.37
2018-04-18T00:54:58.638Z,17.07
2018-04-18T00:57:35.213Z,22.43
2018-04-18T01:00:03.380Z,25.83
2018-04-18T01:02:32.923Z,17.50
2018-04-18T01:05:01.462Z,16.70
2018-04-18T01:07:29.113Z,15.43
2018-04-18T01:09:56.837Z,16.03
2018-04-18T01:15:30.716Z,16.63
2018-04-18T01:17:58.801Z,16.27
2018-04-18T01:20:45.686Z,15.27
2018-04-18T01:23:13.365Z,13.30
2018-04-18T01:25:42.479Z,14.73
2018-04-18T01:28:10.161Z,13.40
2018-04-18T01:30:38.640Z,13.40
2018-04-18T01:33:06.305Z,16.00
2018-04-18T01:35:36.867Z,13.43
2018-04-18T01:38:04.589Z,14.93
2018-04-18T01:40:33.007Z,9.00
2018-04-18T01:43:00.714Z,12.63
2018-04-18T01:45:28.465Z,13.27
2018-04-18T01:47:57.688Z,17.77
2018-04-18T01:50:27.195Z,13.97
2018-04-18T01:52:55.636Z,9.10
2018-04-18T01:55:34.824Z,13.83
2018-04-18T01:58:03.250Z,13.20
2018-04-18T02:00:33.065Z,10.93
2018-04-18T02:03:01.514Z,12.97
2018-04-18T02:05:37.534Z,13.43
2018-04-18T02:08:06.715Z,9.60
2018-04-18T02:10:52.040Z,13.67
2018-04-18T02:13:20.112Z,15.00
2018-04-18T02:15:49.838Z,11.33
2018-04-18T02:18:18.690Z,11.27
2018-04-18T02:20:47.723Z,13.63
2018-04-18T02:23:15.473Z,10.23
2018-04-18T02:25:54.825Z,12.30
2018-04-18T02:28:22.932Z,14.23
2018-04-18T02:30:57.121Z,13.17
2018-04-18T02:33:25.233Z,16.23
2018-04-18T02:35:58.951Z,12.07
2018-04-18T02:38:27.055Z,9.63
2018-04-18T02:40:57.519Z,12.67
2018-04-18T02:43:25.145Z,14.63
2018-04-18T02:46:03.770Z,13.00
2018-04-18T02:48:31.489Z,12.77
2018-04-18T02:50:59.268Z,16.80
2018-04-18T02:53:26.902Z,15.67
2018-04-18T02:56:10.440Z,16.63
2018-04-18T02:58:38.892Z,12.37
2018-04-18T03:01:18.966Z,12.10
2018-04-18T03:03:47.109Z,15.37
2018-04-18T03:06:28.042Z,16.20
2018-04-18T03:08:55.780Z,14.47
2018-04-18T03:11:28.269Z,14.20
2018-04-18T03:13:56.311Z,14.90
2018-04-18T03:16:34.690Z,11.87
2018-04-18T03:19:02.423Z,13.73
2018-04-18T03:21:42.633Z,12.47
2018-04-18T03:24:10.397Z,11.57
2018-04-18T03:26:38.642Z,12.90
2018-04-18T03:29:06.328Z,9.97
2018-04-18T03:31:36.162Z,13.87
2018-04-18T03:34:05.036Z,13.00
2018-04-18T03:36:33.117Z,10.77
2018-04-18T03:39:02.024Z,12.63
2018-04-18T03:41:30.481Z,13.90
2018-04-18T03:43:58.135Z,14.67
2018-04-18T03:46:27.858Z,17.20
2018-04-18T03:48:56.378Z,10.93
2018-04-18T03:51:24.119Z,11.30
2018-04-18T03:53:52.554Z,11.60
2018-04-18T03:56:21.427Z,12.70
2018-04-18T03:58:49.883Z,12.90
2018-04-18T04:01:19.973Z,15.20
2018-04-18T04:03:48.458Z,18.60
2018-04-18T04:06:16.504Z,18.47
2018-04-18T04:08:44.626Z,16.27
2018-04-18T04:11:12.660Z,18.17
2018-04-18T04:13:40.532Z,17.37
2018-04-18T04:16:26.237Z,19.87
2018-04-18T04:19:17.951Z,19.20
2018-04-18T04:22:09.933Z,17.93
2018-04-18T04:24:38.579Z,17.30
2018-04-18T04:27:10.462Z,15.40
2018-04-18T04:29:38.196Z,18.97
2018-04-18T04:32:10.871Z,20.40
2018-04-18T04:34:39.065Z,19.17
2018-04-18T04:40:14.463Z,18.63
2018-04-18T04:42:42.512Z,22.13
2018-04-18T04:45:10.903Z,16.90
2018-04-18T04:47:38.579Z,15.13
2018-04-18T04:50:11.582Z,15.87
2018-04-18T04:52:39.345Z,12.43
2018-04-18T04:55:11.220Z,17.73
2018-04-18T04:57:38.997Z,14.60
2018-04-18T05:00:21.794Z,13.17
2018-04-18T05:02:49.989Z,11.67
2018-04-18T05:05:17.693Z,13.87
2018-04-18T05:07:45.386Z,19.53
2018-04-18T05:10:13.078Z,18.60
2018-04-18T05:12:41.165Z,14.50
2018-04-18T05:15:08.879Z,13.27
2018-04-18T05:17:37.328Z,15.33
2018-04-18T05:20:16.044Z,17.53
2018-04-18T05:22:44.573Z,16.47
2018-04-18T05:25:13.361Z,16.07
2018-04-18T05:27:41.858Z,18.03
2018-04-18T05:30:12.272Z,18.50
2018-04-18T05:32:40.404Z,16.50
2018-04-18T05:35:12.193Z,15.40
2018-04-18T05:37:40.221Z,21.10
2018-04-18T05:40:09.465Z,21.47
2018-04-18T05:42:37.117Z,19.53
2018-04-18T05:45:13.339Z,21.10
2018-04-18T05:47:41.043Z,19.00
2018-04-18T05:50:33.837Z,25.60
2018-04-18T05:53:01.878Z,22.73
2018-04-18T05:55:33.088Z,16.23
2018-04-18T05:58:01.500Z,20.93
2018-04-18T06:00:36.475Z,22.03
2018-04-18T06:03:04.218Z,13.97
2018-04-18T06:05:34.301Z,20.63
2018-04-18T06:08:01.978Z,18.07
2018-04-18T06:10:41.432Z,19.73
2018-04-18T06:13:09.940Z,25.30
2018-04-18T06:15:40.799Z,20.07
2018-04-18T06:18:08.510Z,23.10
2018-04-18T06:20:54.068Z,16.07
2018-04-18T06:23:21.734Z,19.17
2018-04-18T06:25:50.429Z,24.87
2018-04-18T06:28:18.584Z,18.00
2018-04-18T06:30:49.449Z,16.87
2018-04-18T06:33:17.891Z,19.83
2018-04-18T06:35:47.598Z,18.37
2018-04-18T06:38:15.337Z,18.13
2018-04-18T06:40:57.654Z,18.97
2018-04-18T06:43:25.365Z,20.93
2018-04-18T06:45:54.884Z,24.70
2018-04-18T06:48:23.559Z,15.67
2018-04-18T06:50:55.305Z,15.40
2018-04-18T06:53:23.782Z,16.40
2018-04-18T06:55:53.597Z,14.73
2018-04-18T06:58:21.309Z,18.37
2018-04-18T07:00:49.776Z,20.90
2018-04-18T07:03:18.751Z,17.57
2018-04-18T07:05:50.965Z,20.73
2018-04-18T07:08:19.091Z,19.47
2018-04-18T07:10:48.622Z,19.80
2018-04-18T07:13:17.884Z,16.30
2018-04-18T07:15:45.520Z,19.83
2018-04-18T07:18:14.025Z,17.30
2018-04-18T07:20:43.741Z,20.53
2018-04-18T07:23:12.208Z,23.20
2018-04-18T07:25:41.943Z,16.80
2018-04-18T07:28:09.691Z,20.33
2018-04-18T07:30:47.539Z,18.37
2018-04-18T07:33:15.660Z,16.53
2018-04-18T07:35:43.850Z,21.27
2018-04-18T07:38:12.288Z,16.40
2018-04-18T07:40:41.396Z,16.93
2018-04-18T07:43:09.106Z,21.67
2018-04-18T07:45:38.603Z,19.57
2018-04-18T07:48:06.313Z,17.37
2018-04-18T07:50:38.748Z,16.87
2018-04-18T07:53:06.466Z,22.67
2018-04-18T07:55:43.773Z,25.97
2018-04-18T07:58:12.281Z,27.17
2018-04-18T08:00:41.012Z,28.40
2018-04-18T08:03:08.748Z,23.20
2018-04-18T08:05:36.404Z,25.67
2018-04-18T08:08:04.137Z,27.23
2018-04-18T08:10:31.886Z,26.07
2018-04-18T08:13:00.396Z,32.77
2018-04-18T08:15:28.549Z,33.37
2018-04-18T08:17:56.807Z,33.80
2018-04-18T08:20:24.453Z,32.97
2018-04-18T08:22:52.206Z,32.17
2018-04-18T08:25:27.387Z,28.73
2018-04-18T08:27:56.825Z,28.67
2018-04-18T08:30:30.839Z,27.87
2018-04-18T08:32:58.580Z,26.53
2018-04-18T08:35:31.261Z,27.23
2018-04-18T08:37:58.964Z,31.13
2018-04-18T08:40:35.746Z,26.77
2018-04-18T08:43:03.471Z,34.47
2018-04-18T08:45:31.201Z,29.80
2018-04-18T08:47:59.641Z,31.13
2018-04-18T08:50:37.894Z,35.30
2018-04-18T08:53:06.397Z,35.57
2018-04-18T08:55:35.883Z,31.17
2018-04-18T08:58:04.336Z,38.17
2018-04-18T09:00:39.967Z,37.30
2018-04-18T09:03:07.685Z,32.13
2018-04-18T09:05:35.448Z,37.93
2018-04-18T09:08:03.309Z,37.57
2018-04-18T09:10:35.244Z,44.00
2018-04-18T09:13:03.082Z,39.57
2018-04-18T09:15:38.002Z,34.53
2018-04-18T09:18:05.686Z,34.73
2018-04-18T09:20:37.248Z,37.63
2018-04-18T09:23:05.033Z,42.20
2018-04-18T09:25:34.698Z,42.57
2018-04-18T09:28:02.369Z,35.17
2018-04-18T09:30:32.155Z,41.57
2018-04-18T09:32:59.861Z,33.17
2018-04-18T09:35:27.765Z,42.53
2018-04-18T09:37:55.494Z,37.10
2018-04-18T09:40:24.243Z,30.93
2018-04-18T09:42:53.031Z,33.87
2018-04-18T09:45:22.687Z,31.57
2018-04-18T09:47:50.484Z,32.70
2018-04-18T09:50:22.742Z,35.80
2018-04-18T09:52:51.200Z,33.73
2018-04-18T09:55:26.008Z,35.50
2018-04-18T09:57:54.129Z,36.67
2018-04-18T10:00:27.430Z,34.03
2018-04-18T10:05:45.206Z,35.40
2018-04-18T10:08:13.947Z,32.80
2018-04-18T10:10:42.398Z,32.77
2018-04-18T10:13:19.939Z,30.50
2018-04-18T10:15:47.596Z,36.13
2018-04-18T10:18:20.814Z,33.93
2018-04-18T10:20:48.532Z,32.10
2018-04-18T10:23:17.623Z,39.50
2018-04-18T10:25:46.155Z,30.53
2018-04-18T10:28:20.127Z,33.77
2018-04-18T10:30:48.605Z,31.47
2018-04-18T10:33:24.544Z,32.20
2018-04-18T10:35:53.065Z,33.90
2018-04-18T10:38:24.083Z,25.03
2018-04-18T10:40:51.833Z,34.10
2018-04-18T10:43:23.418Z,30.47
2018-04-18T10:45:51.166Z,29.60
2018-04-18T10:48:29.552Z,29.70
2018-04-18T10:50:57.195Z,29.03
2018-04-18T10:53:31.742Z,29.37
2018-04-18T10:55:59.449Z,27.43
2018-04-18T10:58:46.268Z,28.40
2018-04-18T11:01:14.025Z,26.80
2018-04-18T11:03:43.841Z,30.10
2018-04-18T11:06:16.459Z,26.30
2018-04-18T11:08:44.105Z,32.93
2018-04-18T11:11:17.469Z,29.67
2018-04-18T11:13:45.189Z,30.07
2018-04-18T11:16:26.701Z,26.30
2018-04-18T11:18:54.448Z,27.97
2018-04-18T11:21:29.724Z,31.00
2018-04-18T11:23:57.806Z,27.07
2018-04-18T11:26:32.271Z,26.90
2018-04-18T11:29:00.039Z,28.50
2018-04-18T11:31:31.924Z,23.37
2018-04-18T11:33:59.636Z,21.90
2018-04-18T11:36:28.147Z,26.67
2018-04-18T11:38:55.847Z,20.33
2018-04-18T11:41:24.584Z,25.57
2018-04-18T11:43:52.242Z,21.23
2018-04-18T11:46:20.901Z,18.27
2018-04-18T11:48:48.597Z,21.53
2018-04-18T11:51:17.787Z,22.47
2018-04-18T11:53:45.554Z,22.53
2018-04-18T11:56:13.199Z,18.50
2018-04-18T11:58:40.920Z,22.10
2018-04-18T12:01:09.690Z,18.53
2018-04-18T12:03:38.179Z,18.30
2018-04-18T12:06:05.896Z,20.17
2018-04-18T12:08:34.161Z,21.57
2018-04-18T12:11:12.563Z,25.27
2018-04-18T12:13:40.340Z,23.70
2018-04-18T12:16:26.220Z,23.03
2018-04-18T12:18:53.873Z,23.23
2018-04-18T12:21:22.600Z,18.53
2018-04-18T12:23:51.803Z,23.80
2018-04-18T12:29:20.184Z,23.07
2018-04-18T12:31:47.895Z,26.77
2018-04-18T12:34:17.567Z,25.03
2018-04-18T12:36:45.620Z,22.53
2018-04-18T12:39:15.064Z,24.47
2018-04-18T12:41:43.470Z,25.77
2018-04-18T12:44:36.494Z,24.27
2018-04-18T12:47:04.922Z,22.37
2018-04-18T12:49:44.164Z,20.93
2018-04-18T12:52:12.200Z,21.07
2018-04-18T12:54:46.873Z,24.57
2018-04-18T12:57:14.574Z,17.07
2018-04-18T12:59:48.741Z,21.80
2018-04-18T13:02:16.382Z,23.87
2018-04-18T13:04:52.696Z,20.40
2018-04-18T13:07:20.412Z,20.43
2018-04-18T13:09:53.258Z,24.80
2018-04-18T13:12:21.763Z,23.67
2018-04-18T13:14:50.522Z,22.87
2018-04-18T13:17:19.096Z,20.67
2018-04-18T13:19:57.588Z,23.40
2018-04-18T13:22:25.321Z,23.93
2018-04-18T13:25:06.175Z,19.57
2018-04-18T13:27:33.913Z,26.23
2018-04-18T13:30:06.601Z,21.87
2018-04-18T13:32:34.648Z,20.37
2018-04-18T13:35:03.806Z,21.67
2018-04-18T13:37:31.516Z,22.93
2018-04-18T13:40:25.197Z,23.13
2018-04-18T13:42:53.316Z,21.43
2018-04-18T13:45:32.967Z,23.27
2018-04-18T13:48:00.667Z,16.47
2018-04-18T13:50:39.405Z,18.03
2018-04-18T13:53:07.129Z,22.83
2018-04-18T13:58:32.517Z,17.03
2018-04-18T14:01:00.220Z,20.97
2018-04-18T14:06:23.430Z,24.90
2018-04-18T14:08:52.033Z,25.57
2018-04-18T14:11:22.914Z,22.47
2018-04-18T14:13:50.619Z,25.53
2018-04-18T14:16:23.725Z,29.87
2018-04-18T14:18:51.416Z,24.40
2018-04-18T14:21:20.159Z,19.40
2018-04-18T14:23:47.915Z,26.37
2018-04-18T14:26:16.347Z,25.43
2018-04-18T14:28:44.787Z,24.13
2018-04-18T14:31:12.660Z,23.20
2018-04-18T14:33:40.699Z,22.77
2018-04-18T14:36:09.210Z,23.90
2018-04-18T14:38:37.218Z,23.20
2018-04-18T14:41:12.399Z,22.60
2018-04-18T14:43:44.801Z,24.73
2018-04-18T14:49:07.237Z,24.67
2018-04-18T14:51:34.952Z,25.57
2018-04-18T14:54:20.868Z,20.43
2018-04-18T14:56:48.977Z,19.00
2018-04-18T14:59:25.257Z,24.27
2018-04-18T15:01:52.981Z,21.77
2018-04-18T15:04:26.318Z,22.47
2018-04-18T15:06:53.944Z,22.20
2018-04-18T15:09:22.817Z,22.30
2018-04-18T15:11:51.987Z,22.93
2018-04-18T15:14:24.726Z,29.93
2018-04-18T15:16:52.463Z,28.73
2018-04-18T15:19:23.976Z,25.27
2018-04-18T15:21:51.660Z,25.27
2018-04-18T15:24:20.680Z,24.45
2018-04-18T15:26:49.356Z,24.90
2018-04-18T15:29:19.004Z,26.10
2018-04-18T15:31:46.701Z,27.23
2018-04-18T15:34:15.786Z,26.07
2018-04-18T15:36:44.070Z,23.37
2018-04-18T15:39:13.229Z,24.80
2018-04-18T15:41:40.883Z,23.50
2018-04-18T15:44:09.104Z,22.80
2018-04-18T15:46:37.209Z,25.35
2018-04-18T15:49:11.093Z,27.95
2018-04-18T15:51:38.832Z,22.33
2018-04-18T15:54:19.603Z,24.45
2018-04-18T15:56:48.525Z,16.95
2018-04-18T15:59:18.575Z,23.65
2018-04-18T16:01:47.680Z,22.65
2018-04-18T16:04:15.418Z,25.20
2018-04-18T16:06:43.112Z,22.02
2018-04-18T16:09:12.244Z,21.77
2018-04-18T16:11:39.920Z,22.95
2018-04-18T16:14:08.083Z,22.85
2018-04-18T16:16:37.377Z,26.17
2018-04-18T16:19:06.048Z,24.77
2018-04-18T16:21:33.784Z,22.23
2018-04-18T16:24:01.524Z,30.10
2018-04-18T16:26:30.511Z,23.83
2018-04-18T16:28:59.698Z,30.00
2018-04-18T16:31:28.818Z,34.22
2018-04-18T16:33:56.497Z,31.77
2018-04-18T16:36:29.794Z,31.42
2018-04-18T16:38:58.901Z,32.05
2018-04-18T16:41:26.662Z,36.15
2018-04-18T16:43:54.370Z,31.55
2018-04-18T16:46:23.615Z,32.30
2018-04-18T16:48:52.667Z,32.30
2018-04-18T16:51:22.166Z,30.23
2018-04-18T16:53:49.922Z,32.87
2018-04-18T16:56:18.626Z,43.80
2018-04-18T16:58:47.706Z,36.03
2018-04-18T17:01:22.141Z,34.27
2018-04-18T17:03:50.664Z,30.53
2018-04-18T17:06:22.998Z,38.57
2018-04-18T17:08:51.568Z,38.43
2018-04-18T17:11:20.566Z,38.17
2018-04-18T17:13:49.038Z,33.23
2018-04-18T17:16:23.761Z,38.07
2018-04-18T17:18:51.428Z,40.87
2018-04-18T17:21:20.934Z,40.37
2018-04-18T17:23:49.998Z,39.03
2018-04-18T17:26:17.706Z,35.13
2018-04-18T17:28:46.179Z,35.63
2018-04-18T17:31:22.862Z,36.40
2018-04-18T17:33:51.897Z,34.10
2018-04-18T17:36:25.651Z,38.17
2018-04-18T17:38:55.802Z,38.60
2018-04-18T17:41:27.092Z,37.53
2018-04-18T17:43:55.054Z,38.43
2018-04-18T17:46:30.361Z,38.03
2018-04-18T17:49:02.874Z,42.90
2018-04-18T17:51:33.395Z,44.23
2018-04-18T17:54:08.686Z,43.50
2018-04-18T17:56:40.636Z,39.17
2018-04-18T17:59:23.336Z,40.40
2018-04-18T18:01:55.150Z,35.93
2018-04-18T18:04:33.829Z,41.07
2018-04-18T18:07:02.030Z,42.70
2018-04-18T18:09:44.243Z,42.97
2018-04-18T18:12:12.346Z,41.77
2018-04-18T18:14:41.257Z,42.30
2018-04-18T18:17:10.472Z,35.57
2018-04-18T18:19:39.189Z,39.27
2018-04-18T18:27:53.372Z,41.40
2018-04-18T18:30:23.036Z,34.17
2018-04-18T18:32:51.493Z,43.00
2018-04-18T18:35:36.360Z,39.80
2018-04-18T18:38:04.136Z,34.53
2018-04-18T18:40:33.660Z,42.67
2018-04-18T18:43:02.154Z,41.77
2018-04-18T18:45:34.514Z,39.63
2018-04-18T18:48:03.774Z,35.50
2018-04-18T18:50:36.192Z,34.17
2018-04-18T18:53:04.320Z,40.10
2018-04-18T18:55:35.492Z,45.03
2018-04-18T18:58:03.641Z,36.07
2018-04-18T19:03:27.521Z,41.97
2018-04-18T19:05:56.006Z,34.67
2018-04-18T19:08:30.994Z,38.27
2018-04-18T19:10:58.837Z,38.83
2018-04-18T19:13:26.601Z,35.97
2018-04-18T19:15:55.149Z,42.37
2018-04-18T19:18:23.930Z,42.63
2018-04-18T19:20:52.983Z,40.47
2018-04-18T19:23:30.253Z,42.67
2018-04-18T19:25:58.721Z,43.73
2018-04-18T19:28:28.486Z,42.97
2018-04-18T19:30:56.185Z,45.43
2018-04-18T19:33:31.479Z,36.77
2018-04-18T19:36:00.120Z,46.53
2018-04-18T19:38:39.143Z,38.20
2018-04-18T19:41:06.870Z,42.93
2018-04-18T19:43:38.600Z,41.03
2018-04-18T19:46:06.435Z,37.87
2018-04-18T19:48:35.139Z,47.83
2018-04-18T19:51:03.663Z,45.27
2018-04-18T19:53:35.885Z,42.67
2018-04-18T19:56:04.513Z,48.53
2018-04-18T20:01:27.991Z,47.30
2018-04-18T20:03:55.665Z,58.90
2018-04-18T20:06:26.650Z,41.50
2018-04-18T20:08:55.885Z,44.63
2018-04-18T20:11:25.977Z,50.07
2018-04-18T20:13:54.870Z,45.93
2018-04-18T20:16:29.653Z,39.97
2018-04-18T20:18:57.448Z,43.47
2018-04-18T20:21:27.589Z,41.93
2018-04-18T20:23:55.292Z,36.57
2018-04-18T20:26:23.824Z,43.67
2018-04-18T20:28:52.261Z,42.20
2018-04-18T20:31:34.856Z,37.47
2018-04-18T20:34:02.916Z,38.77
2018-04-18T20:39:41.024Z,36.97
2018-04-18T20:42:09.037Z,41.27
2018-04-18T20:44:51.137Z,41.17
2018-04-18T20:47:19.241Z,37.87
2018-04-18T20:49:51.477Z,34.77
2018-04-18T20:52:19.144Z,44.23
2018-04-18T20:54:50.120Z,36.67
2018-04-18T20:57:18.570Z,38.27
2018-04-18T20:59:48.841Z,35.63
2018-04-18T21:02:16.485Z,33.10
2018-04-18T21:04:45.972Z,40.80
2018-04-18T21:07:13.656Z,35.93
2018-04-18T21:09:43.155Z,37.60
2018-04-18T21:12:11.595Z,31.73
2018-04-18T21:17:34.643Z,40.20
2018-04-18T21:20:02.388Z,37.03
2018-04-18T21:22:34.724Z,39.43
2018-04-18T21:25:02.583Z,38.63
2018-04-18T21:27:34.059Z,33.17
2018-04-18T21:30:02.949Z,31.40
2018-04-18T21:32:33.553Z,34.57
2018-04-18T21:35:01.245Z,33.67
2018-04-18T21:37:31.789Z,34.03
2018-04-18T21:40:00.235Z,31.60
2018-04-18T21:42:28.949Z,39.90
2018-04-18T21:44:57.435Z,35.67
2018-04-18T21:47:25.184Z,35.43
2018-04-18T21:49:53.313Z,32.63
2018-04-18T21:52:20.984Z,31.33
2018-04-18T21:54:49.604Z,29.80
2018-04-18T21:57:18.070Z,40.60
2018-04-18T21:59:45.818Z,32.87
2018-04-18T22:02:13.536Z,28.83
2018-04-18T22:04:42.572Z,32.97
2018-04-18T22:07:12.677Z,31.30
2018-04-18T22:09:40.376Z,34.30
2018-04-18T22:12:08.818Z,35.30
2018-04-18T22:14:36.550Z,36.30
2018-04-18T22:17:05.617Z,30.90
2018-04-18T22:19:33.850Z,37.30
2018-04-18T22:22:02.347Z,37.03
2018-04-18T22:24:30.048Z,36.97
2018-04-18T22:27:22.013Z,31.13
2018-04-18T22:29:50.561Z,33.20
2018-04-18T22:32:20.677Z,35.20
2018-04-18T22:34:49.153Z,36.27
2018-04-18T22:37:20.481Z,36.87
2018-04-18T22:39:48.118Z,31.60
2018-04-18T22:42:16.856Z,30.50
2018-04-18T22:44:44.938Z,36.83
2018-04-18T22:47:37.883Z,33.63
2018-04-18T22:50:06.334Z,38.50
2018-04-18T22:52:40.520Z,35.10
2018-04-18T22:55:08.250Z,37.40
2018-04-18T22:57:36.845Z,35.60
2018-04-18T23:00:04.649Z,38.50
2018-04-18T23:02:43.549Z,38.30
2018-04-18T23:05:11.640Z,43.13
2018-04-18T23:07:50.628Z,43.07
2018-04-18T23:10:18.736Z,33.57
2018-04-18T23:12:48.875Z,33.33
2018-04-18T23:15:16.646Z,43.47
2018-04-18T23:17:46.134Z,40.10
2018-04-18T23:20:14.196Z,42.27
2018-04-18T23:22:44.605Z,41.83
2018-04-18T23:25:12.296Z,43.43
2018-04-18T23:27:44.482Z,41.77
2018-04-18T23:30:13.410Z,38.93
2018-04-18T23:32:42.152Z,40.50
2018-04-18T23:35:09.812Z,39.77
2018-04-18T23:37:43.218Z,39.07
2018-04-18T23:40:11.851Z,40.33
2018-04-18T23:42:45.314Z,41.37
2018-04-18T23:45:13.133Z,38.50
2018-04-18T23:47:57.320Z,34.33
2018-04-18T23:50:25.809Z,34.80
2018-04-18T23:52:53.930Z,33.83
2018-04-18T23:55:22.109Z,36.37
2018-04-18T23:57:55.029Z,39.03
